General Aviation Weather

Text Reports

Enter one or more of the following location identifiers separated by a space:

Zip Code, Four-Character ICAO or Three-Character IATA airport codes.

METAR - Aviation Routine Weather Report
KTIF - Thedford, Nebraska
Updated at 6:15 PM GMT on July 23, 2016 (1:15 PM CDT):
METAR KTIF 231815Z AUTO 27011G17KT 10SM CLR 34/17 A2987 RMK AO2 T03420165
TAF - Terminal Area Forecast
KTIF - Thedford, Nebraska
Updated at 6:15 PM GMT on July 23, 2016 (1:15 PM CDT):
No TAF is currently available for this location.
Decoded:
No decoded TAF is available.
PIREP - Pilot Weather Report
KTIF - Thedford, Nebraska
Updated at 6:15 PM GMT on July 23, 2016 (1:15 PM CDT):
No PIREP is currently available for this location.
AIRMET - Airmens Meteorological Information
KTIF - Thedford, Nebraska
Updated at 6:15 PM GMT on July 23, 2016 (1:15 PM CDT):
No AIRMET is currently available for this location.
SIGMET - Significant Meteorological Information
KTIF - Thedford, Nebraska
Updated at 6:15 PM GMT on July 23, 2016 (1:15 PM CDT):
No SIGMET is currently available for this location.
NOTAM - Notice to Airmen
KTIF - Thedford, Nebraska
Updated at 6:15 PM GMT on July 23, 2016 (1:15 PM CDT):
No NOTAM is currently available for this location.
Forecast Area
KTIF - Thedford, Nebraska
Updated at 6:15 PM GMT on July 23, 2016 (1:15 PM CDT):
No NOTAM is currently available for this location.
Aviation Weather Maps